createdAt,value
2022-12-23T00:01:52.030Z,87.23
2022-12-23T00:04:22.769Z,87.34
2022-12-23T00:06:53.242Z,87.67
2022-12-23T00:09:24.297Z,87.57
2022-12-23T00:12:06.943Z,87.68
2022-12-23T00:14:52.878Z,87.64
2022-12-23T00:17:23.544Z,87.86
2022-12-23T00:19:54.075Z,87.69
2022-12-23T00:22:45.443Z,87.59
2022-12-23T00:25:16.616Z,87.77
2022-12-23T00:28:01.646Z,87.75
2022-12-23T00:30:34.988Z,87.69
2022-12-23T00:33:05.898Z,88.00
2022-12-23T00:35:36.418Z,87.84
2022-12-23T00:38:07.125Z,87.76
2022-12-23T00:40:50.053Z,87.62
2022-12-23T00:43:20.702Z,87.82
2022-12-23T00:45:53.833Z,87.71
2022-12-23T00:48:36.909Z,87.54
2022-12-23T00:51:07.820Z,87.39
2022-12-23T00:53:38.207Z,87.46
2022-12-23T00:56:09.085Z,87.61
2022-12-23T00:58:39.612Z,87.30
2022-12-23T01:01:25.374Z,87.66
2022-12-23T01:04:08.756Z,87.53
2022-12-23T01:06:39.237Z,87.48
2022-12-23T01:09:09.716Z,87.40
2022-12-23T01:11:40.239Z,87.37
2022-12-23T01:14:12.881Z,87.47
2022-12-23T01:16:47.811Z,87.35
2022-12-23T01:19:18.790Z,87.30
2022-12-23T01:21:49.265Z,87.33
2022-12-23T01:24:20.046Z,87.17
2022-12-23T01:26:50.530Z,87.43
2022-12-23T01:29:21.037Z,87.46
2022-12-23T01:31:54.172Z,87.46
2022-12-23T01:34:24.882Z,87.26
2022-12-23T01:36:55.284Z,87.58
2022-12-23T01:39:25.681Z,87.42
2022-12-23T01:42:08.717Z,87.49
2022-12-23T01:44:58.084Z,87.37
2022-12-23T01:47:41.673Z,87.38
2022-12-23T01:50:17.349Z,87.21
2022-12-23T01:52:50.536Z,87.25
2022-12-23T01:55:23.869Z,87.20
2022-12-23T01:57:57.587Z,87.24
2022-12-23T02:00:40.483Z,87.15
2022-12-23T02:03:26.250Z,87.14
2022-12-23T02:06:16.936Z,87.17
2022-12-23T02:08:59.988Z,86.89
2022-12-23T02:12:00.571Z,86.88
2022-12-23T02:14:55.006Z,87.12
2022-12-23T02:17:30.857Z,87.15
2022-12-23T02:20:32.012Z,86.84
2022-12-23T02:23:29.123Z,86.78
2022-12-23T02:26:22.748Z,86.89
2022-12-23T02:29:08.946Z,86.79
2022-12-23T02:31:50.233Z,86.70
2022-12-23T02:34:23.764Z,86.67
2022-12-23T02:37:11.115Z,86.75
2022-12-23T02:39:47.505Z,86.81
2022-12-23T02:42:20.388Z,86.90
2022-12-23T02:44:59.073Z,86.87
2022-12-23T02:47:37.771Z,87.07
2022-12-23T02:50:14.043Z,87.24
2022-12-23T02:52:47.717Z,87.17
2022-12-23T02:55:23.679Z,87.41
2022-12-23T02:57:56.782Z,87.32
2022-12-23T03:00:27.402Z,87.20
2022-12-23T03:03:00.696Z,87.28
2022-12-23T03:05:36.347Z,87.29
2022-12-23T03:08:09.577Z,87.32
2022-12-23T03:10:49.050Z,87.24
2022-12-23T03:13:29.626Z,87.40
2022-12-23T03:16:11.311Z,87.24
2022-12-23T03:18:54.978Z,87.54
2022-12-23T03:21:32.887Z,87.46
2022-12-23T03:24:12.622Z,87.71
2022-12-23T03:26:49.193Z,87.38
2022-12-23T03:29:27.835Z,87.59
2022-12-23T03:32:02.235Z,87.80
2022-12-23T03:34:40.002Z,87.72
2022-12-23T03:37:13.731Z,88.03
2022-12-23T03:39:49.872Z,87.86
2022-12-23T03:42:27.734Z,87.95
2022-12-23T03:45:36.948Z,88.25
2022-12-23T03:47:56.713Z,88.21
2022-12-23T03:50:31.590Z,88.39
2022-12-23T03:53:07.399Z,88.22
2022-12-23T03:55:43.879Z,88.16
2022-12-23T03:58:22.558Z,88.49
2022-12-23T04:01:01.990Z,88.21
2022-12-23T04:03:39.316Z,88.45
2022-12-23T04:06:17.516Z,88.37
2022-12-23T04:08:51.351Z,88.57
2022-12-23T04:11:22.333Z,88.58
2022-12-23T04:13:53.155Z,88.58
2022-12-23T04:16:23.919Z,88.53
2022-12-23T04:18:54.606Z,88.37
2022-12-23T04:21:27.634Z,88.44
2022-12-23T04:23:58.172Z,88.70
2022-12-23T04:26:28.779Z,88.40
2022-12-23T04:28:59.214Z,88.69
2022-12-23T04:31:30.035Z,88.61
2022-12-23T04:34:00.764Z,88.69
2022-12-23T04:36:33.869Z,88.50
2022-12-23T04:39:04.398Z,88.78
2022-12-23T04:41:35.465Z,88.63
2022-12-23T04:44:06.102Z,88.68
2022-12-23T04:46:36.680Z,88.84
2022-12-23T04:49:07.362Z,88.89
2022-12-23T04:51:40.755Z,88.76
2022-12-23T04:54:11.443Z,88.96
2022-12-23T04:56:42.071Z,88.89
2022-12-23T04:59:13.487Z,89.39
2022-12-23T05:01:46.366Z,89.10
2022-12-23T05:04:17.263Z,89.72
2022-12-23T05:06:50.530Z,89.43
2022-12-23T05:09:21.291Z,89.41
2022-12-23T05:11:52.032Z,89.29
2022-12-23T05:14:22.553Z,89.17
2022-12-23T05:16:53.213Z,89.16
2022-12-23T05:19:24.161Z,89.17
2022-12-23T05:21:57.304Z,89.32
2022-12-23T05:24:27.824Z,89.08
2022-12-23T05:27:00.343Z,89.04
2022-12-23T05:29:31.308Z,89.11
2022-12-23T05:32:02.020Z,89.14
2022-12-23T05:34:32.752Z,88.80
2022-12-23T05:37:05.863Z,88.81
2022-12-23T05:39:36.686Z,89.16
2022-12-23T05:42:07.728Z,88.92
2022-12-23T05:44:38.206Z,89.17
2022-12-23T05:47:09.034Z,88.92
2022-12-23T05:49:39.654Z,89.26
2022-12-23T05:52:12.866Z,89.09
2022-12-23T05:54:43.670Z,88.96
2022-12-23T05:57:14.540Z,89.17
2022-12-23T05:59:45.447Z,88.91
2022-12-23T06:02:16.369Z,88.85
2022-12-23T06:04:47.356Z,89.03
2022-12-23T06:07:20.657Z,89.01
2022-12-23T06:09:51.321Z,89.00
2022-12-23T06:12:21.950Z,88.98
2022-12-23T06:14:52.545Z,89.17
2022-12-23T06:17:23.203Z,89.31
2022-12-23T06:19:53.851Z,89.09
2022-12-23T06:22:27.196Z,89.38
2022-12-23T06:24:57.869Z,89.17
2022-12-23T06:27:28.312Z,89.24
2022-12-23T06:29:59.003Z,89.39
2022-12-23T06:32:32.896Z,89.24
2022-12-23T06:35:09.505Z,89.18
2022-12-23T06:37:42.792Z,89.17
2022-12-23T06:40:14.772Z,88.98
2022-12-23T06:42:45.398Z,89.18
2022-12-23T06:45:16.165Z,88.99
2022-12-23T06:47:46.677Z,89.14
2022-12-23T06:50:17.377Z,89.13
2022-12-23T06:52:51.051Z,89.08
2022-12-23T06:55:21.960Z,89.10
2022-12-23T06:57:52.518Z,89.13
2022-12-23T07:00:23.900Z,89.16
2022-12-23T07:02:56.084Z,89.15
2022-12-23T07:05:29.478Z,89.03
2022-12-23T07:08:06.466Z,89.00
2022-12-23T07:10:37.204Z,88.88
2022-12-23T07:13:08.043Z,89.12
2022-12-23T07:15:39.307Z,89.06
2022-12-23T07:18:09.979Z,88.88
2022-12-23T07:20:40.990Z,88.85
2022-12-23T07:23:14.398Z,89.14
2022-12-23T07:25:44.876Z,89.27
2022-12-23T07:28:15.412Z,89.22
2022-12-23T07:30:46.283Z,89.17
2022-12-23T07:33:16.722Z,89.16
2022-12-23T07:35:47.262Z,89.33
2022-12-23T07:38:20.522Z,89.23
2022-12-23T07:40:51.637Z,89.10
2022-12-23T07:43:22.253Z,88.95
2022-12-23T07:45:59.535Z,89.07
2022-12-23T07:48:31.426Z,89.14
2022-12-23T07:51:03.492Z,89.19
2022-12-23T07:53:36.630Z,89.11
2022-12-23T07:56:08.042Z,89.07
2022-12-23T07:58:38.520Z,89.27
2022-12-23T08:01:10.726Z,89.08
2022-12-23T08:03:41.257Z,89.25
2022-12-23T08:06:14.274Z,89.37
2022-12-23T08:08:49.009Z,89.41
2022-12-23T08:11:19.604Z,89.37
2022-12-23T08:13:52.932Z,89.36
2022-12-23T08:16:23.582Z,89.54
2022-12-23T08:18:54.188Z,89.31
2022-12-23T08:21:24.610Z,89.36
2022-12-23T08:23:57.926Z,89.49
2022-12-23T08:26:28.405Z,89.51
2022-12-23T08:28:59.054Z,89.52
2022-12-23T08:31:32.150Z,89.46
2022-12-23T08:34:03.907Z,89.51
2022-12-23T08:36:36.227Z,89.66
2022-12-23T08:39:12.348Z,89.50
2022-12-23T08:41:47.374Z,89.74
2022-12-23T08:44:19.760Z,89.91
2022-12-23T08:46:50.472Z,90.00
2022-12-23T08:49:21.124Z,89.85
2022-12-23T08:51:51.911Z,89.71
2022-12-23T08:54:25.244Z,89.42
2022-12-23T08:56:55.774Z,89.46
2022-12-23T08:59:26.276Z,89.33
2022-12-23T09:01:56.923Z,89.39
2022-12-23T09:04:27.509Z,89.15
2022-12-23T09:06:58.025Z,89.21
2022-12-23T09:09:31.056Z,89.34
2022-12-23T09:12:01.593Z,89.25
2022-12-23T09:14:32.154Z,89.18
2022-12-23T09:17:02.681Z,89.14
2022-12-23T09:19:33.406Z,89.27
2022-12-23T09:22:03.843Z,89.02
2022-12-23T09:24:37.620Z,88.92
2022-12-23T09:27:08.060Z,88.69
2022-12-23T09:29:38.694Z,88.62
2022-12-23T09:32:09.136Z,88.78
2022-12-23T09:34:39.687Z,88.90
2022-12-23T09:37:10.088Z,89.02
2022-12-23T09:39:43.307Z,88.86
2022-12-23T09:42:37.285Z,88.94
2022-12-23T09:45:23.948Z,89.09
2022-12-23T09:48:12.380Z,89.12
2022-12-23T09:50:45.692Z,89.11
2022-12-23T09:53:20.695Z,88.93
2022-12-23T09:56:02.258Z,88.75
2022-12-23T09:58:38.305Z,89.03
2022-12-23T10:01:20.822Z,88.75
2022-12-23T10:04:12.720Z,88.65
2022-12-23T10:06:47.777Z,88.66
2022-12-23T10:09:20.836Z,88.75
2022-12-23T10:11:54.133Z,88.47
2022-12-23T10:14:27.785Z,88.47
2022-12-23T10:17:01.667Z,88.44
2022-12-23T10:19:41.710Z,88.63
2022-12-23T10:22:18.844Z,88.86
2022-12-23T10:24:51.146Z,89.04
2022-12-23T10:27:31.105Z,89.15
2022-12-23T10:30:26.428Z,88.87
2022-12-23T10:33:04.152Z,88.81
2022-12-23T10:36:04.226Z,88.80
2022-12-23T10:38:54.011Z,88.78
2022-12-23T10:41:38.672Z,88.48
2022-12-23T10:44:32.448Z,88.68
2022-12-23T10:47:14.440Z,88.31
2022-12-23T10:49:56.405Z,88.41
2022-12-23T10:52:30.945Z,88.44
2022-12-23T10:55:01.537Z,88.55
2022-12-23T10:57:33.124Z,88.70
2022-12-23T11:00:17.320Z,88.17
2022-12-23T11:02:53.728Z,88.21
2022-12-23T11:05:30.449Z,88.50
2022-12-23T11:08:01.692Z,88.54
2022-12-23T11:10:35.987Z,88.80
2022-12-23T11:13:07.225Z,88.38
2022-12-23T11:15:42.309Z,88.41
2022-12-23T11:18:20.853Z,88.34
2022-12-23T11:21:06.170Z,88.43
2022-12-23T11:23:37.903Z,88.42
2022-12-23T11:26:10.641Z,88.03
2022-12-23T11:28:44.299Z,88.26
2022-12-23T11:31:18.004Z,88.46
2022-12-23T11:33:52.314Z,88.58
2022-12-23T11:36:27.605Z,88.52
2022-12-23T11:39:06.941Z,88.75
2022-12-23T11:41:40.205Z,89.03
2022-12-23T11:44:19.463Z,89.20
2022-12-23T11:46:53.295Z,89.30
2022-12-23T11:49:25.589Z,88.95
2022-12-23T11:52:04.602Z,88.74
2022-12-23T11:54:36.079Z,88.88
2022-12-23T11:57:18.613Z,89.02
2022-12-23T11:59:51.704Z,89.10
2022-12-23T12:02:35.254Z,89.22
2022-12-23T12:05:10.775Z,89.07
2022-12-23T12:07:45.071Z,88.89
2022-12-23T12:10:23.910Z,88.92
2022-12-23T12:12:58.860Z,88.92
2022-12-23T12:15:34.235Z,88.75
2022-12-23T12:18:11.376Z,88.59
2022-12-23T12:20:46.917Z,88.69
2022-12-23T12:23:22.436Z,88.67
2022-12-23T12:25:58.732Z,88.64
2022-12-23T12:28:36.211Z,88.47
2022-12-23T12:31:15.482Z,88.72
2022-12-23T12:33:54.222Z,88.48
2022-12-23T12:36:35.833Z,88.38
2022-12-23T12:39:07.355Z,88.31
2022-12-23T12:41:42.462Z,87.91
2022-12-23T12:44:31.267Z,88.19
2022-12-23T12:47:28.182Z,88.21
2022-12-23T12:50:18.113Z,88.13
2022-12-23T12:53:04.245Z,88.17
2022-12-23T12:55:37.700Z,88.13
2022-12-23T12:58:18.473Z,88.04
2022-12-23T13:00:58.962Z,87.95
2022-12-23T13:03:48.610Z,87.99
2022-12-23T13:06:29.459Z,88.15
2022-12-23T13:09:12.188Z,88.32
2022-12-23T13:11:49.683Z,88.34
2022-12-23T13:14:34.014Z,88.33
2022-12-23T13:17:11.161Z,88.51
2022-12-23T13:19:49.755Z,88.50
2022-12-23T13:22:27.930Z,88.47
2022-12-23T13:25:06.558Z,88.36
2022-12-23T13:27:42.441Z,88.45
2022-12-23T13:30:18.047Z,88.26
2022-12-23T13:33:02.592Z,88.46
2022-12-23T13:35:37.317Z,88.56
2022-12-23T13:38:23.279Z,88.36
2022-12-23T13:41:05.861Z,88.48
2022-12-23T13:43:44.503Z,88.43
2022-12-23T13:46:25.786Z,88.42
2022-12-23T13:49:06.636Z,88.25
2022-12-23T13:51:43.412Z,88.19
2022-12-23T13:54:28.016Z,88.18
2022-12-23T13:57:08.183Z,88.48
2022-12-23T13:59:44.201Z,88.61
2022-12-23T14:02:46.576Z,88.63
2022-12-23T14:05:35.475Z,88.73
2022-12-23T14:08:09.360Z,88.52
2022-12-23T14:10:42.475Z,88.29
2022-12-23T14:13:20.567Z,88.42
2022-12-23T14:16:12.195Z,88.46
2022-12-23T14:18:56.600Z,88.39
2022-12-23T14:21:44.864Z,88.43
2022-12-23T14:24:45.618Z,88.70
2022-12-23T14:27:37.196Z,88.52
2022-12-23T14:30:16.437Z,88.47
2022-12-23T14:32:52.955Z,88.79
2022-12-23T14:35:30.112Z,88.78
2022-12-23T14:38:34.423Z,88.75
2022-12-23T14:41:25.355Z,88.48
2022-12-23T14:44:02.879Z,88.61
2022-12-23T14:47:00.792Z,88.45
2022-12-23T14:49:49.119Z,88.69
2022-12-23T14:52:50.835Z,88.45
2022-12-23T14:55:47.053Z,88.60
2022-12-23T14:58:39.562Z,88.63
2022-12-23T15:01:18.246Z,88.69
2022-12-23T15:03:57.533Z,88.84
2022-12-23T15:06:36.037Z,88.72
2022-12-23T15:09:08.281Z,88.80
2022-12-23T15:11:39.852Z,88.73
2022-12-23T15:14:17.566Z,89.09
2022-12-23T15:16:51.000Z,88.62
2022-12-23T15:19:23.990Z,88.78
2022-12-23T15:22:17.961Z,88.94
2022-12-23T15:24:51.761Z,88.68
2022-12-23T15:27:28.720Z,88.84
2022-12-23T15:30:01.266Z,89.33
2022-12-23T15:32:35.819Z,89.31
2022-12-23T15:35:09.702Z,88.93
2022-12-23T15:37:44.079Z,89.12
2022-12-23T15:40:28.137Z,89.33
2022-12-23T15:42:59.352Z,89.30
2022-12-23T15:45:39.563Z,89.49
2022-12-23T15:48:28.018Z,89.32
2022-12-23T15:51:02.918Z,89.59
2022-12-23T15:53:40.019Z,89.71
2022-12-23T15:56:15.166Z,89.70
2022-12-23T15:58:47.443Z,89.78
2022-12-23T16:01:20.118Z,89.53
2022-12-23T16:03:59.910Z,89.39
2022-12-23T16:06:35.603Z,89.66
2022-12-23T16:09:09.679Z,89.66
2022-12-23T16:11:56.708Z,89.78
2022-12-23T16:14:36.030Z,89.58
2022-12-23T16:17:25.049Z,89.65
2022-12-23T16:20:16.680Z,89.95
2022-12-23T16:22:50.677Z,89.91
2022-12-23T16:25:25.913Z,89.62
2022-12-23T16:28:00.662Z,89.77
2022-12-23T16:30:34.417Z,89.86
2022-12-23T16:33:09.776Z,89.95
2022-12-23T16:35:48.844Z,90.13
2022-12-23T16:38:24.213Z,90.20
2022-12-23T16:41:00.697Z,90.16
2022-12-23T16:43:34.031Z,90.30
2022-12-23T16:46:05.057Z,90.26
2022-12-23T16:48:39.302Z,90.25
2022-12-23T16:51:18.634Z,90.07
2022-12-23T16:53:49.268Z,90.05
2022-12-23T16:56:23.153Z,90.12
2022-12-23T16:58:55.671Z,90.08
2022-12-23T17:01:29.238Z,90.24
2022-12-23T17:04:00.462Z,90.28
2022-12-23T17:06:34.149Z,90.22
2022-12-23T17:09:06.264Z,90.11
2022-12-23T17:11:42.325Z,90.28
2022-12-23T17:14:18.956Z,89.92
2022-12-23T17:16:50.870Z,90.05
2022-12-23T17:19:28.280Z,90.16
2022-12-23T17:22:05.615Z,90.40
2022-12-23T17:24:36.732Z,90.48
2022-12-23T17:27:16.167Z,90.42
2022-12-23T17:29:47.734Z,90.46
2022-12-23T17:32:21.007Z,90.70
2022-12-23T17:34:52.131Z,90.78
2022-12-23T17:37:26.011Z,90.71
2022-12-23T17:39:57.717Z,90.89
2022-12-23T17:42:28.724Z,90.96
2022-12-23T17:44:59.679Z,91.21
2022-12-23T17:47:31.257Z,91.08
2022-12-23T17:50:02.270Z,90.86
2022-12-23T17:52:36.773Z,91.07
2022-12-23T17:55:09.571Z,91.13
2022-12-23T17:57:40.147Z,91.43
2022-12-23T18:00:13.186Z,90.95
2022-12-23T18:02:44.220Z,91.26
2022-12-23T18:05:28.018Z,91.54
2022-12-23T18:08:03.474Z,91.81
2022-12-23T18:10:38.930Z,91.84
2022-12-23T18:13:12.782Z,91.53
2022-12-23T18:15:46.144Z,91.26
2022-12-23T18:18:27.215Z,91.49
2022-12-23T18:21:02.722Z,92.20
2022-12-23T18:23:37.679Z,91.74
2022-12-23T18:26:08.519Z,92.13
2022-12-23T18:28:39.827Z,91.79
2022-12-23T18:31:18.970Z,91.76
2022-12-23T18:33:51.080Z,92.07
2022-12-23T18:36:25.559Z,92.44
2022-12-23T18:39:00.236Z,92.02
2022-12-23T18:41:31.757Z,91.79
2022-12-23T18:44:02.839Z,92.33
2022-12-23T18:46:34.294Z,92.42
2022-12-23T18:49:05.793Z,92.20
2022-12-23T18:51:37.847Z,91.92
2022-12-23T18:54:18.729Z,92.11
2022-12-23T18:56:50.619Z,92.19
2022-12-23T18:59:29.894Z,91.94
2022-12-23T19:02:02.631Z,92.41
2022-12-23T19:04:34.381Z,92.34
2022-12-23T19:07:06.167Z,92.24
2022-12-23T19:09:40.213Z,92.02
2022-12-23T19:12:11.803Z,92.21
2022-12-23T19:14:43.130Z,92.04
2022-12-23T19:17:14.743Z,92.35
2022-12-23T19:19:46.528Z,92.02
2022-12-23T19:22:18.141Z,92.34
2022-12-23T19:25:05.481Z,92.43
2022-12-23T19:27:39.103Z,92.06
2022-12-23T19:30:15.457Z,92.24
2022-12-23T19:32:51.874Z,92.50
2022-12-23T19:35:23.800Z,92.53
2022-12-23T19:37:55.195Z,93.05
2022-12-23T19:40:28.837Z,92.82
2022-12-23T19:43:00.170Z,92.38
2022-12-23T19:45:31.654Z,92.73
2022-12-23T19:48:02.908Z,92.43
2022-12-23T19:50:34.053Z,92.31
2022-12-23T19:53:04.586Z,92.36
2022-12-23T19:55:37.584Z,92.34
2022-12-23T19:58:08.058Z,92.36
2022-12-23T20:00:38.469Z,92.42
2022-12-23T20:03:09.317Z,92.32
2022-12-23T20:05:39.831Z,92.21
2022-12-23T20:08:10.195Z,92.54
2022-12-23T20:10:43.623Z,92.82
2022-12-23T20:13:14.413Z,92.80
2022-12-23T20:15:45.104Z,92.58
2022-12-23T20:18:15.642Z,92.61
2022-12-23T20:20:46.731Z,92.54
2022-12-23T20:23:17.088Z,92.61
2022-12-23T20:25:50.444Z,92.68
2022-12-23T20:28:22.415Z,92.62
2022-12-23T20:31:01.879Z,92.42
2022-12-23T20:33:32.615Z,92.51
2022-12-23T20:36:02.969Z,92.66
2022-12-23T20:38:33.454Z,92.63
2022-12-23T20:41:06.580Z,92.81
2022-12-23T20:43:37.481Z,92.54
2022-12-23T20:46:10.201Z,92.64
2022-12-23T20:48:41.040Z,92.48
2022-12-23T20:51:14.373Z,92.58
2022-12-23T20:53:45.611Z,92.70
2022-12-23T20:56:20.250Z,92.90
2022-12-23T20:58:57.866Z,92.65
2022-12-23T21:01:31.439Z,92.68
2022-12-23T21:04:04.226Z,92.73
2022-12-23T21:06:35.079Z,92.66
2022-12-23T21:09:07.126Z,92.89
2022-12-23T21:11:43.102Z,93.03
2022-12-23T21:14:14.542Z,92.77
2022-12-23T21:16:45.826Z,92.82
2022-12-23T21:19:19.583Z,93.03
2022-12-23T21:21:51.477Z,92.81
2022-12-23T21:24:22.987Z,92.90
2022-12-23T21:26:57.282Z,92.79
2022-12-23T21:29:28.719Z,93.04
2022-12-23T21:32:00.630Z,93.04
2022-12-23T21:34:31.077Z,93.29
2022-12-23T21:37:01.479Z,93.25
2022-12-23T21:39:32.020Z,93.06
2022-12-23T21:42:05.122Z,93.21
2022-12-23T21:44:35.631Z,93.01
2022-12-23T21:47:06.135Z,93.10
2022-12-23T21:49:37.036Z,93.32
2022-12-23T21:52:07.934Z,93.29
2022-12-23T21:54:38.674Z,93.33
2022-12-23T21:57:12.427Z,93.05
2022-12-23T21:59:43.171Z,93.21
2022-12-23T22:02:17.944Z,93.48
2022-12-23T22:04:48.532Z,93.51
2022-12-23T22:07:18.994Z,93.46
2022-12-23T22:09:49.342Z,93.60
2022-12-23T22:12:22.427Z,93.88
2022-12-23T22:14:53.208Z,93.87
2022-12-23T22:17:23.718Z,93.85
2022-12-23T22:19:54.215Z,93.83
2022-12-23T22:22:24.931Z,93.72
2022-12-23T22:24:55.401Z,93.88
2022-12-23T22:27:28.448Z,93.84
2022-12-23T22:29:59.180Z,93.57
2022-12-23T22:32:30.025Z,93.70
2022-12-23T22:35:00.897Z,93.55
2022-12-23T22:37:31.445Z,93.68
2022-12-23T22:40:01.847Z,93.87
2022-12-23T22:42:36.034Z,94.18
2022-12-23T22:45:06.439Z,94.08
2022-12-23T22:47:36.922Z,94.08
2022-12-23T22:50:09.116Z,93.79
2022-12-23T22:52:39.772Z,93.80
2022-12-23T22:55:11.077Z,93.92
2022-12-23T22:57:44.163Z,93.64
2022-12-23T23:00:16.016Z,93.24
2022-12-23T23:02:46.904Z,93.22
2022-12-23T23:05:17.409Z,93.37
2022-12-23T23:07:47.965Z,93.62
2022-12-23T23:10:18.961Z,93.58
2022-12-23T23:12:58.659Z,93.87
2022-12-23T23:15:29.255Z,93.62
2022-12-23T23:17:59.815Z,93.89
2022-12-23T23:20:30.449Z,93.69
2022-12-23T23:23:01.568Z,93.67
2022-12-23T23:25:32.078Z,93.67
2022-12-23T23:28:05.236Z,93.76
2022-12-23T23:30:36.001Z,93.81
2022-12-23T23:33:07.147Z,93.36
2022-12-23T23:35:38.840Z,93.51
2022-12-23T23:38:12.317Z,93.49
2022-12-23T23:40:42.703Z,93.39
2022-12-23T23:43:15.886Z,93.74
2022-12-23T23:45:46.399Z,93.80
2022-12-23T23:48:17.752Z,93.75
2022-12-23T23:50:48.338Z,93.60
2022-12-23T23:53:19.609Z,93.85
2022-12-23T23:55:50.405Z,93.84
2022-12-23T23:58:23.955Z,93.85
